sensor_id;sensor_type;location;lat;lon;timestamp;P1;durP1;ratioP1;P2;durP2;ratioP2
2129;SDS011;1071;52.544;13.374;2023-03-04T00:00:44;33.72;;;23.05;;
2129;SDS011;1071;52.544;13.374;2023-03-04T00:03:11;33.30;;;21.88;;
2129;SDS011;1071;52.544;13.374;2023-03-04T00:05:39;32.40;;;21.75;;
2129;SDS011;1071;52.544;13.374;2023-03-04T00:08:06;40.40;;;22.77;;
2129;SDS011;1071;52.544;13.374;2023-03-04T00:10:33;32.40;;;20.52;;
2129;SDS011;1071;52.544;13.374;2023-03-04T00:13:00;31.23;;;20.85;;
2129;SDS011;1071;52.544;13.374;2023-03-04T00:15:27;33.75;;;21.80;;
2129;SDS011;1071;52.544;13.374;2023-03-04T00:17:55;33.35;;;21.30;;
2129;SDS011;1071;52.544;13.374;2023-03-04T00:20:22;32.13;;;21.95;;
2129;SDS011;1071;52.544;13.374;2023-03-04T00:22:50;36.13;;;24.40;;
2129;SDS011;1071;52.544;13.374;2023-03-04T00:25:16;30.60;;;19.90;;
2129;SDS011;1071;52.544;13.374;2023-03-04T00:27:43;31.80;;;20.92;;
2129;SDS011;1071;52.544;13.374;2023-03-04T00:30:11;40.70;;;22.40;;
2129;SDS011;1071;52.544;13.374;2023-03-04T00:32:38;41.42;;;26.90;;
2129;SDS011;1071;52.544;13.374;2023-03-04T00:35:07;32.47;;;19.50;;
2129;SDS011;1071;52.544;13.374;2023-03-04T00:37:34;32.35;;;22.08;;
2129;SDS011;1071;52.544;13.374;2023-03-04T00:40:01;28.58;;;19.35;;
2129;SDS011;1071;52.544;13.374;2023-03-04T00:42:29;26.45;;;18.00;;
2129;SDS011;1071;52.544;13.374;2023-03-04T00:44:57;31.80;;;18.48;;
2129;SDS011;1071;52.544;13.374;2023-03-04T00:47:23;27.92;;;18.80;;
2129;SDS011;1071;52.544;13.374;2023-03-04T00:49:50;33.05;;;20.33;;
2129;SDS011;1071;52.544;13.374;2023-03-04T00:52:19;42.30;;;26.80;;
2129;SDS011;1071;52.544;13.374;2023-03-04T00:54:46;163.00;;;74.70;;
2129;SDS011;1071;52.544;13.374;2023-03-04T00:57:13;127.47;;;61.50;;
2129;SDS011;1071;52.544;13.374;2023-03-04T00:59:40;160.27;;;66.18;;
2129;SDS011;1071;52.544;13.374;2023-03-04T01:02:07;56.17;;;31.17;;
2129;SDS011;1071;52.544;13.374;2023-03-04T01:04:35;55.00;;;32.92;;
2129;SDS011;1071;52.544;13.374;2023-03-04T01:07:02;174.32;;;69.00;;
2129;SDS011;1071;52.544;13.374;2023-03-04T01:09:31;30.30;;;18.15;;
2129;SDS011;1071;52.544;13.374;2023-03-04T01:11:59;52.47;;;23.80;;
2129;SDS011;1071;52.544;13.374;2023-03-04T01:14:25;35.72;;;18.80;;
2129;SDS011;1071;52.544;13.374;2023-03-04T01:16:53;25.15;;;15.25;;
2129;SDS011;1071;52.544;13.374;2023-03-04T01:19:26;29.55;;;18.55;;
2129;SDS011;1071;52.544;13.374;2023-03-04T01:21:53;23.10;;;13.00;;
2129;SDS011;1071;52.544;13.374;2023-03-04T01:24:20;28.40;;;13.50;;
2129;SDS011;1071;52.544;13.374;2023-03-04T01:26:49;15.27;;;10.93;;
2129;SDS011;1071;52.544;13.374;2023-03-04T01:29:16;25.20;;;12.60;;
2129;SDS011;1071;52.544;13.374;2023-03-04T01:31:43;23.17;;;12.32;;
2129;SDS011;1071;52.544;13.374;2023-03-04T01:34:10;23.23;;;12.95;;
2129;SDS011;1071;52.544;13.374;2023-03-04T01:36:37;28.98;;;13.95;;
2129;SDS011;1071;52.544;13.374;2023-03-04T01:39:04;21.63;;;10.38;;
2129;SDS011;1071;52.544;13.374;2023-03-04T01:41:31;21.30;;;11.93;;
2129;SDS011;1071;52.544;13.374;2023-03-04T01:44:00;21.73;;;10.82;;
2129;SDS011;1071;52.544;13.374;2023-03-04T01:46:31;19.70;;;12.27;;
2129;SDS011;1071;52.544;13.374;2023-03-04T01:48:59;23.48;;;12.35;;
2129;SDS011;1071;52.544;13.374;2023-03-04T01:51:26;20.85;;;10.50;;
2129;SDS011;1071;52.544;13.374;2023-03-04T01:53:53;17.20;;;10.50;;
2129;SDS011;1071;52.544;13.374;2023-03-04T01:56:22;16.00;;;9.05;;
2129;SDS011;1071;52.544;13.374;2023-03-04T01:59:08;13.82;;;8.93;;
2129;SDS011;1071;52.544;13.374;2023-03-04T02:01:37;15.40;;;8.95;;
2129;SDS011;1071;52.544;13.374;2023-03-04T02:04:06;16.75;;;7.80;;
2129;SDS011;1071;52.544;13.374;2023-03-04T02:06:34;23.13;;;10.57;;
2129;SDS011;1071;52.544;13.374;2023-03-04T02:09:02;20.35;;;9.95;;
2129;SDS011;1071;52.544;13.374;2023-03-04T02:11:29;12.93;;;9.35;;
2129;SDS011;1071;52.544;13.374;2023-03-04T02:13:57;14.48;;;8.60;;
2129;SDS011;1071;52.544;13.374;2023-03-04T02:16:26;16.02;;;8.15;;
2129;SDS011;1071;52.544;13.374;2023-03-04T02:18:54;15.55;;;8.55;;
2129;SDS011;1071;52.544;13.374;2023-03-04T02:21:22;16.33;;;8.65;;
2129;SDS011;1071;52.544;13.374;2023-03-04T02:23:55;13.02;;;8.15;;
2129;SDS011;1071;52.544;13.374;2023-03-04T02:26:29;13.45;;;8.18;;
2129;SDS011;1071;52.544;13.374;2023-03-04T02:28:56;14.85;;;7.00;;
2129;SDS011;1071;52.544;13.374;2023-03-04T02:31:26;27.33;;;10.73;;
2129;SDS011;1071;52.544;13.374;2023-03-04T02:33:59;17.98;;;8.00;;
2129;SDS011;1071;52.544;13.374;2023-03-04T02:36:28;16.83;;;6.82;;
2129;SDS011;1071;52.544;13.374;2023-03-04T02:39:00;12.88;;;7.72;;
2129;SDS011;1071;52.544;13.374;2023-03-04T02:41:31;14.13;;;7.55;;
2129;SDS011;1071;52.544;13.374;2023-03-04T02:43:58;14.20;;;7.72;;
2129;SDS011;1071;52.544;13.374;2023-03-04T02:46:25;11.27;;;6.60;;
2129;SDS011;1071;52.544;13.374;2023-03-04T02:48:52;14.95;;;7.10;;
2129;SDS011;1071;52.544;13.374;2023-03-04T02:51:19;12.45;;;6.88;;
2129;SDS011;1071;52.544;13.374;2023-03-04T02:53:46;9.35;;;6.93;;
2129;SDS011;1071;52.544;13.374;2023-03-04T02:56:13;10.13;;;6.30;;
2129;SDS011;1071;52.544;13.374;2023-03-04T02:58:46;11.32;;;6.32;;
2129;SDS011;1071;52.544;13.374;2023-03-04T03:01:13;11.05;;;6.35;;
2129;SDS011;1071;52.544;13.374;2023-03-04T03:03:40;14.05;;;7.60;;
2129;SDS011;1071;52.544;13.374;2023-03-04T03:06:08;17.48;;;8.35;;
2129;SDS011;1071;52.544;13.374;2023-03-04T03:08:36;12.77;;;6.32;;
2129;SDS011;1071;52.544;13.374;2023-03-04T03:11:03;16.20;;;8.43;;
2129;SDS011;1071;52.544;13.374;2023-03-04T03:13:30;20.13;;;6.90;;
2129;SDS011;1071;52.544;13.374;2023-03-04T03:15:59;12.43;;;6.20;;
2129;SDS011;1071;52.544;13.374;2023-03-04T03:18:29;13.48;;;7.50;;
2129;SDS011;1071;52.544;13.374;2023-03-04T03:20:56;13.10;;;7.32;;
2129;SDS011;1071;52.544;13.374;2023-03-04T03:23:35;11.20;;;6.20;;
2129;SDS011;1071;52.544;13.374;2023-03-04T03:26:03;12.93;;;7.25;;
2129;SDS011;1071;52.544;13.374;2023-03-04T03:28:32;14.75;;;7.68;;
2129;SDS011;1071;52.544;13.374;2023-03-04T03:31:00;18.88;;;7.50;;
2129;SDS011;1071;52.544;13.374;2023-03-04T03:33:27;14.82;;;6.65;;
2129;SDS011;1071;52.544;13.374;2023-03-04T03:35:54;7.78;;;6.00;;
2129;SDS011;1071;52.544;13.374;2023-03-04T03:38:21;15.95;;;7.07;;
2129;SDS011;1071;52.544;13.374;2023-03-04T03:40:48;15.02;;;5.57;;
2129;SDS011;1071;52.544;13.374;2023-03-04T03:43:15;9.85;;;6.28;;
2129;SDS011;1071;52.544;13.374;2023-03-04T03:45:42;11.85;;;6.10;;
2129;SDS011;1071;52.544;13.374;2023-03-04T03:48:11;16.15;;;6.72;;
2129;SDS011;1071;52.544;13.374;2023-03-04T03:50:38;14.70;;;5.53;;
2129;SDS011;1071;52.544;13.374;2023-03-04T03:53:05;8.07;;;6.00;;
2129;SDS011;1071;52.544;13.374;2023-03-04T03:55:32;11.60;;;4.90;;
2129;SDS011;1071;52.544;13.374;2023-03-04T03:58:03;13.50;;;5.57;;
2129;SDS011;1071;52.544;13.374;2023-03-04T04:00:31;8.88;;;5.10;;
2129;SDS011;1071;52.544;13.374;2023-03-04T04:02:59;9.35;;;5.55;;
2129;SDS011;1071;52.544;13.374;2023-03-04T04:05:27;14.00;;;5.97;;
2129;SDS011;1071;52.544;13.374;2023-03-04T04:07:55;14.35;;;7.78;;
2129;SDS011;1071;52.544;13.374;2023-03-04T04:10:23;14.65;;;6.78;;
2129;SDS011;1071;52.544;13.374;2023-03-04T04:12:50;10.90;;;5.80;;
2129;SDS011;1071;52.544;13.374;2023-03-04T04:15:17;9.20;;;5.10;;
2129;SDS011;1071;52.544;13.374;2023-03-04T04:17:44;11.10;;;6.45;;
2129;SDS011;1071;52.544;13.374;2023-03-04T04:20:11;6.10;;;5.07;;
2129;SDS011;1071;52.544;13.374;2023-03-04T04:22:40;10.48;;;5.75;;
2129;SDS011;1071;52.544;13.374;2023-03-04T04:25:07;10.98;;;5.13;;
2129;SDS011;1071;52.544;13.374;2023-03-04T04:27:35;9.65;;;5.05;;
2129;SDS011;1071;52.544;13.374;2023-03-04T04:30:03;7.30;;;4.47;;
2129;SDS011;1071;52.544;13.374;2023-03-04T04:32:31;17.90;;;5.32;;
2129;SDS011;1071;52.544;13.374;2023-03-04T04:34:58;11.88;;;3.92;;
2129;SDS011;1071;52.544;13.374;2023-03-04T04:37:25;11.65;;;4.70;;
2129;SDS011;1071;52.544;13.374;2023-03-04T04:39:54;10.68;;;4.72;;
2129;SDS011;1071;52.544;13.374;2023-03-04T04:42:21;9.57;;;5.13;;
2129;SDS011;1071;52.544;13.374;2023-03-04T04:44:48;12.60;;;5.47;;
2129;SDS011;1071;52.544;13.374;2023-03-04T04:47:16;6.65;;;4.50;;
2129;SDS011;1071;52.544;13.374;2023-03-04T04:49:44;10.60;;;5.10;;
2129;SDS011;1071;52.544;13.374;2023-03-04T04:52:11;18.38;;;6.78;;
2129;SDS011;1071;52.544;13.374;2023-03-04T04:54:38;7.07;;;4.50;;
2129;SDS011;1071;52.544;13.374;2023-03-04T04:57:07;10.25;;;4.70;;
2129;SDS011;1071;52.544;13.374;2023-03-04T04:59:33;9.95;;;3.72;;
2129;SDS011;1071;52.544;13.374;2023-03-04T05:02:01;14.35;;;4.15;;
2129;SDS011;1071;52.544;13.374;2023-03-04T05:04:28;10.30;;;5.07;;
2129;SDS011;1071;52.544;13.374;2023-03-04T05:06:55;7.50;;;4.15;;
2129;SDS011;1071;52.544;13.374;2023-03-04T05:09:22;8.90;;;3.40;;
2129;SDS011;1071;52.544;13.374;2023-03-04T05:11:49;10.32;;;4.55;;
2129;SDS011;1071;52.544;13.374;2023-03-04T05:14:17;6.35;;;3.72;;
2129;SDS011;1071;52.544;13.374;2023-03-04T05:16:44;9.48;;;3.85;;
2129;SDS011;1071;52.544;13.374;2023-03-04T05:19:11;7.50;;;4.43;;
2129;SDS011;1071;52.544;13.374;2023-03-04T05:21:38;8.82;;;3.83;;
2129;SDS011;1071;52.544;13.374;2023-03-04T05:24:05;9.68;;;3.28;;
2129;SDS011;1071;52.544;13.374;2023-03-04T05:26:32;6.47;;;3.60;;
2129;SDS011;1071;52.544;13.374;2023-03-04T05:28:59;7.05;;;3.72;;
2129;SDS011;1071;52.544;13.374;2023-03-04T05:31:28;8.07;;;4.60;;
2129;SDS011;1071;52.544;13.374;2023-03-04T05:33:55;6.57;;;3.55;;
2129;SDS011;1071;52.544;13.374;2023-03-04T05:36:25;7.88;;;3.28;;
2129;SDS011;1071;52.544;13.374;2023-03-04T05:38:52;4.68;;;3.17;;
2129;SDS011;1071;52.544;13.374;2023-03-04T05:41:19;7.22;;;3.50;;
2129;SDS011;1071;52.544;13.374;2023-03-04T05:43:47;8.57;;;3.85;;
2129;SDS011;1071;52.544;13.374;2023-03-04T05:46:14;8.32;;;4.00;;
2129;SDS011;1071;52.544;13.374;2023-03-04T05:48:44;10.95;;;3.85;;
2129;SDS011;1071;52.544;13.374;2023-03-04T05:51:11;11.52;;;4.95;;
2129;SDS011;1071;52.544;13.374;2023-03-04T05:53:38;7.18;;;3.50;;
2129;SDS011;1071;52.544;13.374;2023-03-04T05:56:07;5.25;;;3.10;;
2129;SDS011;1071;52.544;13.374;2023-03-04T05:58:34;5.63;;;4.05;;
2129;SDS011;1071;52.544;13.374;2023-03-04T06:01:02;6.40;;;3.17;;
2129;SDS011;1071;52.544;13.374;2023-03-04T06:03:29;6.07;;;2.90;;
2129;SDS011;1071;52.544;13.374;2023-03-04T06:05:58;5.45;;;3.00;;
2129;SDS011;1071;52.544;13.374;2023-03-04T06:08:25;4.95;;;3.53;;
2129;SDS011;1071;52.544;13.374;2023-03-04T06:10:53;7.05;;;4.20;;
2129;SDS011;1071;52.544;13.374;2023-03-04T06:13:23;9.77;;;3.50;;
2129;SDS011;1071;52.544;13.374;2023-03-04T06:15:52;3.28;;;2.97;;
2129;SDS011;1071;52.544;13.374;2023-03-04T06:18:20;9.98;;;3.67;;
2129;SDS011;1071;52.544;13.374;2023-03-04T06:20:47;8.35;;;3.55;;
2129;SDS011;1071;52.544;13.374;2023-03-04T06:23:20;10.30;;;3.97;;
2129;SDS011;1071;52.544;13.374;2023-03-04T06:25:49;5.75;;;3.13;;
2129;SDS011;1071;52.544;13.374;2023-03-04T06:28:18;6.68;;;3.38;;
2129;SDS011;1071;52.544;13.374;2023-03-04T06:30:45;8.00;;;2.95;;
2129;SDS011;1071;52.544;13.374;2023-03-04T06:33:13;7.53;;;3.10;;
2129;SDS011;1071;52.544;13.374;2023-03-04T06:35:40;7.75;;;3.15;;
2129;SDS011;1071;52.544;13.374;2023-03-04T06:38:07;12.77;;;3.42;;
2129;SDS011;1071;52.544;13.374;2023-03-04T06:40:36;6.35;;;2.88;;
2129;SDS011;1071;52.544;13.374;2023-03-04T06:43:03;5.00;;;3.13;;
2129;SDS011;1071;52.544;13.374;2023-03-04T06:45:33;6.15;;;3.53;;
2129;SDS011;1071;52.544;13.374;2023-03-04T06:48:07;3.72;;;2.08;;
2129;SDS011;1071;52.544;13.374;2023-03-04T06:50:34;6.20;;;3.60;;
2129;SDS011;1071;52.544;13.374;2023-03-04T06:53:01;5.28;;;2.63;;
2129;SDS011;1071;52.544;13.374;2023-03-04T06:55:28;7.70;;;4.07;;
2129;SDS011;1071;52.544;13.374;2023-03-04T06:57:56;2.50;;;2.03;;
2129;SDS011;1071;52.544;13.374;2023-03-04T07:00:23;4.45;;;2.53;;
2129;SDS011;1071;52.544;13.374;2023-03-04T07:02:50;6.03;;;3.38;;
2129;SDS011;1071;52.544;13.374;2023-03-04T07:05:20;6.05;;;3.40;;
2129;SDS011;1071;52.544;13.374;2023-03-04T07:07:47;9.20;;;3.75;;
2129;SDS011;1071;52.544;13.374;2023-03-04T07:10:15;10.68;;;3.15;;
2129;SDS011;1071;52.544;13.374;2023-03-04T07:12:42;5.03;;;2.85;;
2129;SDS011;1071;52.544;13.374;2023-03-04T07:15:10;7.22;;;3.50;;
2129;SDS011;1071;52.544;13.374;2023-03-04T07:17:40;7.43;;;3.47;;
2129;SDS011;1071;52.544;13.374;2023-03-04T07:20:10;7.70;;;3.40;;
2129;SDS011;1071;52.544;13.374;2023-03-04T07:22:37;6.10;;;2.72;;
2129;SDS011;1071;52.544;13.374;2023-03-04T07:25:04;6.10;;;3.80;;
2129;SDS011;1071;52.544;13.374;2023-03-04T07:27:33;9.23;;;4.22;;
2129;SDS011;1071;52.544;13.374;2023-03-04T07:30:02;6.35;;;3.40;;
2129;SDS011;1071;52.544;13.374;2023-03-04T07:32:31;6.40;;;3.78;;
2129;SDS011;1071;52.544;13.374;2023-03-04T07:34:59;7.80;;;4.35;;
2129;SDS011;1071;52.544;13.374;2023-03-04T07:37:30;6.80;;;3.40;;
2129;SDS011;1071;52.544;13.374;2023-03-04T07:40:04;10.05;;;4.55;;
2129;SDS011;1071;52.544;13.374;2023-03-04T07:42:33;5.18;;;3.47;;
2129;SDS011;1071;52.544;13.374;2023-03-04T07:45:01;6.53;;;4.70;;
2129;SDS011;1071;52.544;13.374;2023-03-04T07:47:29;8.75;;;5.70;;
2129;SDS011;1071;52.544;13.374;2023-03-04T07:49:58;9.07;;;5.18;;
2129;SDS011;1071;52.544;13.374;2023-03-04T07:52:25;6.75;;;5.22;;
2129;SDS011;1071;52.544;13.374;2023-03-04T07:54:52;9.77;;;5.60;;
2129;SDS011;1071;52.544;13.374;2023-03-04T07:57:19;7.20;;;4.55;;
2129;SDS011;1071;52.544;13.374;2023-03-04T07:59:46;8.10;;;4.82;;
2129;SDS011;1071;52.544;13.374;2023-03-04T08:02:13;8.27;;;5.43;;
2129;SDS011;1071;52.544;13.374;2023-03-04T08:04:40;10.25;;;3.80;;
2129;SDS011;1071;52.544;13.374;2023-03-04T08:07:08;6.32;;;3.90;;
2129;SDS011;1071;52.544;13.374;2023-03-04T08:09:38;8.38;;;4.70;;
2129;SDS011;1071;52.544;13.374;2023-03-04T08:12:05;7.18;;;3.85;;
2129;SDS011;1071;52.544;13.374;2023-03-04T08:14:35;8.27;;;4.63;;
2129;SDS011;1071;52.544;13.374;2023-03-04T08:17:03;5.43;;;3.60;;
2129;SDS011;1071;52.544;13.374;2023-03-04T08:19:30;9.20;;;3.70;;
2129;SDS011;1071;52.544;13.374;2023-03-04T08:21:57;10.75;;;6.32;;
2129;SDS011;1071;52.544;13.374;2023-03-04T08:24:25;9.65;;;4.95;;
2129;SDS011;1071;52.544;13.374;2023-03-04T08:26:52;6.53;;;4.65;;
2129;SDS011;1071;52.544;13.374;2023-03-04T08:29:19;9.50;;;6.43;;
2129;SDS011;1071;52.544;13.374;2023-03-04T08:31:48;8.20;;;5.30;;
2129;SDS011;1071;52.544;13.374;2023-03-04T08:34:16;5.70;;;4.00;;
2129;SDS011;1071;52.544;13.374;2023-03-04T08:36:44;9.43;;;5.78;;
2129;SDS011;1071;52.544;13.374;2023-03-04T08:39:11;8.32;;;5.40;;
2129;SDS011;1071;52.544;13.374;2023-03-04T08:41:41;10.38;;;5.72;;
2129;SDS011;1071;52.544;13.374;2023-03-04T08:44:09;6.60;;;3.80;;
2129;SDS011;1071;52.544;13.374;2023-03-04T08:46:37;6.57;;;3.83;;
2129;SDS011;1071;52.544;13.374;2023-03-04T08:49:05;9.80;;;4.70;;
2129;SDS011;1071;52.544;13.374;2023-03-04T08:51:32;5.78;;;3.03;;
2129;SDS011;1071;52.544;13.374;2023-03-04T08:54:00;4.78;;;2.78;;
2129;SDS011;1071;52.544;13.374;2023-03-04T08:56:28;8.63;;;2.55;;
2129;SDS011;1071;52.544;13.374;2023-03-04T08:58:57;2.83;;;2.28;;
2129;SDS011;1071;52.544;13.374;2023-03-04T09:01:25;9.80;;;2.42;;
2129;SDS011;1071;52.544;13.374;2023-03-04T09:03:52;4.82;;;2.47;;
2129;SDS011;1071;52.544;13.374;2023-03-04T09:06:20;4.85;;;2.90;;
2129;SDS011;1071;52.544;13.374;2023-03-04T09:08:47;8.02;;;2.30;;
2129;SDS011;1071;52.544;13.374;2023-03-04T09:11:14;14.68;;;4.43;;
2129;SDS011;1071;52.544;13.374;2023-03-04T09:13:41;10.68;;;2.78;;
2129;SDS011;1071;52.544;13.374;2023-03-04T09:16:10;3.40;;;2.30;;
2129;SDS011;1071;52.544;13.374;2023-03-04T09:18:38;5.85;;;2.47;;
2129;SDS011;1071;52.544;13.374;2023-03-04T09:21:06;9.02;;;4.22;;
2129;SDS011;1071;52.544;13.374;2023-03-04T09:23:34;11.95;;;5.43;;
2129;SDS011;1071;52.544;13.374;2023-03-04T09:26:11;9.65;;;6.03;;
2129;SDS011;1071;52.544;13.374;2023-03-04T09:28:39;15.05;;;3.25;;
2129;SDS011;1071;52.544;13.374;2023-03-04T09:31:11;6.68;;;3.05;;
2129;SDS011;1071;52.544;13.374;2023-03-04T09:33:38;7.15;;;3.58;;
2129;SDS011;1071;52.544;13.374;2023-03-04T09:36:07;7.90;;;3.15;;
2129;SDS011;1071;52.544;13.374;2023-03-04T09:38:37;7.53;;;3.40;;
2129;SDS011;1071;52.544;13.374;2023-03-04T09:41:06;6.95;;;3.22;;
2129;SDS011;1071;52.544;13.374;2023-03-04T09:43:35;7.20;;;3.83;;
2129;SDS011;1071;52.544;13.374;2023-03-04T09:46:05;6.97;;;3.60;;
2129;SDS011;1071;52.544;13.374;2023-03-04T09:48:39;7.00;;;2.95;;
2129;SDS011;1071;52.544;13.374;2023-03-04T09:51:16;9.50;;;4.60;;
2129;SDS011;1071;52.544;13.374;2023-03-04T09:53:48;6.88;;;3.17;;
2129;SDS011;1071;52.544;13.374;2023-03-04T09:56:27;7.78;;;3.60;;
2129;SDS011;1071;52.544;13.374;2023-03-04T09:58:57;4.82;;;3.20;;
2129;SDS011;1071;52.544;13.374;2023-03-04T10:01:32;7.00;;;3.55;;
2129;SDS011;1071;52.544;13.374;2023-03-04T10:04:11;7.25;;;2.85;;
2129;SDS011;1071;52.544;13.374;2023-03-04T10:06:40;7.35;;;2.30;;
2129;SDS011;1071;52.544;13.374;2023-03-04T10:09:13;4.95;;;3.70;;
2129;SDS011;1071;52.544;13.374;2023-03-04T10:11:45;11.60;;;5.75;;
2129;SDS011;1071;52.544;13.374;2023-03-04T10:14:17;10.43;;;6.45;;
2129;SDS011;1071;52.544;13.374;2023-03-04T10:16:58;9.02;;;3.45;;
2129;SDS011;1071;52.544;13.374;2023-03-04T10:19:36;12.40;;;4.10;;
2129;SDS011;1071;52.544;13.374;2023-03-04T10:22:14;8.95;;;4.28;;
2129;SDS011;1071;52.544;13.374;2023-03-04T10:24:45;9.77;;;2.60;;
2129;SDS011;1071;52.544;13.374;2023-03-04T10:27:14;4.07;;;2.50;;
2129;SDS011;1071;52.544;13.374;2023-03-04T10:29:45;7.10;;;2.50;;
2129;SDS011;1071;52.544;13.374;2023-03-04T10:32:12;8.50;;;3.28;;
2129;SDS011;1071;52.544;13.374;2023-03-04T10:34:47;8.52;;;3.85;;
2129;SDS011;1071;52.544;13.374;2023-03-04T10:37:14;15.85;;;5.53;;
2129;SDS011;1071;52.544;13.374;2023-03-04T10:39:42;13.63;;;4.60;;
2129;SDS011;1071;52.544;13.374;2023-03-04T10:45:01;9.95;;;5.60;;
2129;SDS011;1071;52.544;13.374;2023-03-04T10:47:30;11.60;;;4.47;;
2129;SDS011;1071;52.544;13.374;2023-03-04T10:50:01;8.55;;;3.28;;
2129;SDS011;1071;52.544;13.374;2023-03-04T10:52:30;11.13;;;4.20;;
2129;SDS011;1071;52.544;13.374;2023-03-04T10:55:01;13.32;;;8.40;;
2129;SDS011;1071;52.544;13.374;2023-03-04T10:57:40;14.82;;;7.00;;
2129;SDS011;1071;52.544;13.374;2023-03-04T11:00:23;10.93;;;5.40;;
2129;SDS011;1071;52.544;13.374;2023-03-04T11:02:52;16.42;;;7.45;;
2129;SDS011;1071;52.544;13.374;2023-03-04T11:05:50;12.20;;;4.43;;
2129;SDS011;1071;52.544;13.374;2023-03-04T11:08:28;9.68;;;4.68;;
2129;SDS011;1071;52.544;13.374;2023-03-04T11:10:55;11.35;;;5.47;;
2129;SDS011;1071;52.544;13.374;2023-03-04T11:13:23;18.27;;;5.20;;
2129;SDS011;1071;52.544;13.374;2023-03-04T11:15:51;10.60;;;4.20;;
2129;SDS011;1071;52.544;13.374;2023-03-04T11:18:21;9.82;;;3.65;;
2129;SDS011;1071;52.544;13.374;2023-03-04T11:20:56;12.95;;;5.05;;
2129;SDS011;1071;52.544;13.374;2023-03-04T11:23:25;10.52;;;5.05;;
2129;SDS011;1071;52.544;13.374;2023-03-04T11:26:00;18.42;;;5.20;;
2129;SDS011;1071;52.544;13.374;2023-03-04T11:28:33;13.45;;;6.80;;
2129;SDS011;1071;52.544;13.374;2023-03-04T11:31:05;15.98;;;6.45;;
2129;SDS011;1071;52.544;13.374;2023-03-04T11:33:40;9.15;;;4.60;;
2129;SDS011;1071;52.544;13.374;2023-03-04T11:36:19;9.80;;;4.22;;
2129;SDS011;1071;52.544;13.374;2023-03-04T11:38:54;15.55;;;4.47;;
2129;SDS011;1071;52.544;13.374;2023-03-04T11:41:24;14.13;;;4.50;;
2129;SDS011;1071;52.544;13.374;2023-03-04T11:43:56;13.52;;;4.38;;
2129;SDS011;1071;52.544;13.374;2023-03-04T11:46:46;13.32;;;3.95;;
2129;SDS011;1071;52.544;13.374;2023-03-04T11:49:32;13.35;;;3.75;;
2129;SDS011;1071;52.544;13.374;2023-03-04T11:52:24;12.85;;;5.32;;
2129;SDS011;1071;52.544;13.374;2023-03-04T11:55:11;9.77;;;2.95;;
2129;SDS011;1071;52.544;13.374;2023-03-04T11:58:03;8.07;;;3.97;;
2129;SDS011;1071;52.544;13.374;2023-03-04T12:00:42;12.18;;;4.25;;
2129;SDS011;1071;52.544;13.374;2023-03-04T12:03:26;13.25;;;4.57;;
2129;SDS011;1071;52.544;13.374;2023-03-04T12:06:15;12.73;;;5.32;;
2129;SDS011;1071;52.544;13.374;2023-03-04T12:08:59;12.82;;;5.72;;
2129;SDS011;1071;52.544;13.374;2023-03-04T12:11:45;12.55;;;4.70;;
2129;SDS011;1071;52.544;13.374;2023-03-04T12:14:30;15.13;;;3.83;;
2129;SDS011;1071;52.544;13.374;2023-03-04T12:17:07;16.27;;;4.35;;
2129;SDS011;1071;52.544;13.374;2023-03-04T12:19:51;16.15;;;5.10;;
2129;SDS011;1071;52.544;13.374;2023-03-04T12:22:33;9.35;;;5.40;;
2129;SDS011;1071;52.544;13.374;2023-03-04T12:25:16;12.18;;;4.80;;
2129;SDS011;1071;52.544;13.374;2023-03-04T12:27:52;7.07;;;3.15;;
2129;SDS011;1071;52.544;13.374;2023-03-04T12:30:32;13.02;;;5.15;;
2129;SDS011;1071;52.544;13.374;2023-03-04T12:33:09;6.90;;;3.47;;
2129;SDS011;1071;52.544;13.374;2023-03-04T12:35:46;13.52;;;4.13;;
2129;SDS011;1071;52.544;13.374;2023-03-04T12:38:29;6.15;;;3.00;;
2129;SDS011;1071;52.544;13.374;2023-03-04T12:41:14;7.50;;;3.25;;
2129;SDS011;1071;52.544;13.374;2023-03-04T12:44:07;6.32;;;3.00;;
2129;SDS011;1071;52.544;13.374;2023-03-04T12:46:48;10.40;;;4.72;;
2129;SDS011;1071;52.544;13.374;2023-03-04T12:49:36;10.40;;;4.00;;
2129;SDS011;1071;52.544;13.374;2023-03-04T12:52:14;6.25;;;3.35;;
2129;SDS011;1071;52.544;13.374;2023-03-04T12:54:48;6.38;;;3.80;;
2129;SDS011;1071;52.544;13.374;2023-03-04T12:57:18;14.50;;;5.63;;
2129;SDS011;1071;52.544;13.374;2023-03-04T12:59:53;9.77;;;3.90;;
2129;SDS011;1071;52.544;13.374;2023-03-04T13:02:36;10.43;;;3.25;;
2129;SDS011;1071;52.544;13.374;2023-03-04T13:08:13;10.35;;;3.80;;
2129;SDS011;1071;52.544;13.374;2023-03-04T13:10:50;11.15;;;3.88;;
2129;SDS011;1071;52.544;13.374;2023-03-04T13:13:36;15.07;;;4.15;;
2129;SDS011;1071;52.544;13.374;2023-03-04T13:16:05;9.23;;;2.97;;
2129;SDS011;1071;52.544;13.374;2023-03-04T13:18:53;9.32;;;4.00;;
2129;SDS011;1071;52.544;13.374;2023-03-04T13:21:21;6.15;;;2.38;;
2129;SDS011;1071;52.544;13.374;2023-03-04T13:23:49;8.00;;;3.58;;
2129;SDS011;1071;52.544;13.374;2023-03-04T13:26:18;12.20;;;3.30;;
2129;SDS011;1071;52.544;13.374;2023-03-04T13:28:54;9.93;;;2.88;;
2129;SDS011;1071;52.544;13.374;2023-03-04T13:31:56;22.67;;;9.27;;
2129;SDS011;1071;52.544;13.374;2023-03-04T13:34:46;8.43;;;3.70;;
2129;SDS011;1071;52.544;13.374;2023-03-04T13:37:25;10.95;;;4.05;;
2129;SDS011;1071;52.544;13.374;2023-03-04T13:43:23;8.35;;;2.97;;
2129;SDS011;1071;52.544;13.374;2023-03-04T13:45:53;8.25;;;3.65;;
2129;SDS011;1071;52.544;13.374;2023-03-04T13:48:22;6.60;;;3.58;;
2129;SDS011;1071;52.544;13.374;2023-03-04T13:51:01;6.88;;;2.65;;
2129;SDS011;1071;52.544;13.374;2023-03-04T13:53:29;9.77;;;4.38;;
2129;SDS011;1071;52.544;13.374;2023-03-04T13:56:28;10.07;;;3.65;;
2129;SDS011;1071;52.544;13.374;2023-03-04T14:01:57;12.80;;;4.72;;
2129;SDS011;1071;52.544;13.374;2023-03-04T14:04:35;10.43;;;4.53;;
2129;SDS011;1071;52.544;13.374;2023-03-04T14:07:03;7.00;;;4.43;;
2129;SDS011;1071;52.544;13.374;2023-03-04T14:09:52;13.73;;;4.80;;
2129;SDS011;1071;52.544;13.374;2023-03-04T14:12:20;12.48;;;4.88;;
2129;SDS011;1071;52.544;13.374;2023-03-04T14:14:49;12.57;;;6.38;;
2129;SDS011;1071;52.544;13.374;2023-03-04T14:17:20;16.63;;;6.50;;
2129;SDS011;1071;52.544;13.374;2023-03-04T14:19:50;8.65;;;5.45;;
2129;SDS011;1071;52.544;13.374;2023-03-04T14:22:19;16.10;;;5.28;;
2129;SDS011;1071;52.544;13.374;2023-03-04T14:24:55;14.70;;;4.80;;
2129;SDS011;1071;52.544;13.374;2023-03-04T14:27:26;7.60;;;4.20;;
2129;SDS011;1071;52.544;13.374;2023-03-04T14:29:54;6.60;;;3.70;;
2129;SDS011;1071;52.544;13.374;2023-03-04T14:32:23;12.02;;;4.47;;
2129;SDS011;1071;52.544;13.374;2023-03-04T14:34:50;12.02;;;6.10;;
2129;SDS011;1071;52.544;13.374;2023-03-04T14:37:23;14.50;;;4.95;;
2129;SDS011;1071;52.544;13.374;2023-03-04T14:39:53;23.52;;;11.20;;
2129;SDS011;1071;52.544;13.374;2023-03-04T14:42:22;10.23;;;5.30;;
2129;SDS011;1071;52.544;13.374;2023-03-04T14:44:52;19.50;;;10.85;;
2129;SDS011;1071;52.544;13.374;2023-03-04T14:47:26;20.90;;;11.00;;
2129;SDS011;1071;52.544;13.374;2023-03-04T14:49:58;13.10;;;6.50;;
2129;SDS011;1071;52.544;13.374;2023-03-04T14:52:27;11.38;;;5.88;;
2129;SDS011;1071;52.544;13.374;2023-03-04T14:55:02;16.08;;;5.82;;
2129;SDS011;1071;52.544;13.374;2023-03-04T14:57:50;12.40;;;5.95;;
2129;SDS011;1071;52.544;13.374;2023-03-04T15:00:24;14.13;;;7.05;;
2129;SDS011;1071;52.544;13.374;2023-03-04T15:02:59;12.90;;;4.60;;
2129;SDS011;1071;52.544;13.374;2023-03-04T15:05:28;14.77;;;6.93;;
2129;SDS011;1071;52.544;13.374;2023-03-04T15:07:57;10.55;;;5.80;;
2129;SDS011;1071;52.544;13.374;2023-03-04T15:10:29;13.88;;;4.85;;
2129;SDS011;1071;52.544;13.374;2023-03-04T15:12:58;15.38;;;5.57;;
2129;SDS011;1071;52.544;13.374;2023-03-04T15:15:33;25.42;;;7.80;;
2129;SDS011;1071;52.544;13.374;2023-03-04T15:18:13;13.15;;;7.55;;
2129;SDS011;1071;52.544;13.374;2023-03-04T15:20:54;13.27;;;5.28;;
2129;SDS011;1071;52.544;13.374;2023-03-04T15:23:22;12.35;;;9.35;;